Time;durP1;ratioP1;P1;durP2;ratioP2;P2;SDS_P1;SDS_P2;PMS_P1;PMS_P2;Temp;Humidity;BMP_temperature;BMP_pressure;BME280_temperature;BME280_humidity;BME280_pressure;Samples;Min_cycle;Max_cycle;Signal;HPM_P1;HPM_P2
2023/10/06 00:03:10;;;;;;;16.98;14.98;;;21.10;96.70;;;;;;5006068;28;20698;-78
2023/10/06 00:05:39;;;;;;;16.55;14.85;;;21.20;96.70;;;;;;5004465;28;20508;-79
2023/10/06 00:08:40;;;;;;;16.80;14.93;;;21.20;96.70;;;;;;5001966;28;20136;-79
2023/10/06 00:11:15;;;;;;;16.55;14.85;;;21.20;96.70;;;;;;5017868;28;20061;-79
2023/10/06 00:14:00;;;;;;;15.75;14.18;;;21.20;96.70;;;;;;5012517;28;20470;-79
2023/10/06 00:16:38;;;;;;;16.02;14.43;;;21.20;96.70;;;;;;5005870;28;20054;-79
2023/10/06 00:22:01;;;;;;;17.02;14.55;;;21.20;96.70;;;;;;5003600;28;20604;-79
2023/10/06 00:24:31;;;;;;;18.80;15.07;;;21.10;96.70;;;;;;5013523;28;20045;-79
2023/10/06 00:26:59;;;;;;;16.45;14.00;;;21.20;96.70;;;;;;5013421;28;20404;-79
2023/10/06 00:29:29;;;;;;;15.07;13.57;;;21.20;96.70;;;;;;5018728;28;20577;-79
2023/10/06 00:32:21;;;;;;;15.52;13.93;;;21.00;96.70;;;;;;5008268;28;20045;-79
2023/10/06 00:34:54;;;;;;;17.58;13.85;;;20.90;96.70;;;;;;5014669;28;20057;-79
2023/10/06 00:37:22;;;;;;;15.98;14.23;;;20.90;96.70;;;;;;5007060;28;20107;-78
2023/10/06 00:39:52;;;;;;;16.25;14.38;;;21.00;96.70;;;;;;5020935;28;20060;-77
2023/10/06 00:42:21;;;;;;;18.15;14.25;;;21.00;96.70;;;;;;5024140;28;20053;-79
2023/10/06 00:44:49;;;;;;;16.35;14.75;;;21.00;96.70;;;;;;5005084;28;20053;-79
2023/10/06 00:47:17;;;;;;;20.05;15.60;;;20.90;96.70;;;;;;5011925;28;20053;-79
2023/10/06 00:49:45;;;;;;;17.00;15.27;;;20.90;96.70;;;;;;5005518;28;20056;-79
2023/10/06 00:52:15;;;;;;;16.73;15.02;;;20.80;96.70;;;;;;4997000;28;20132;-78
2023/10/06 00:54:44;;;;;;;15.52;14.00;;;20.80;96.70;;;;;;5011860;28;20526;-79
2023/10/06 00:57:15;;;;;;;17.67;14.20;;;20.80;96.70;;;;;;4999334;28;20580;-78
2023/10/06 00:59:42;;;;;;;16.60;14.85;;;20.70;96.70;;;;;;5016212;28;20527;-78
2023/10/06 01:02:11;;;;;;;17.42;14.70;;;20.60;96.70;;;;;;5013133;28;20050;-79
2023/10/06 01:04:52;;;;;;;18.50;15.05;;;20.60;96.70;;;;;;5015799;28;20038;-79
2023/10/06 01:07:24;;;;;;;16.08;14.30;;;20.60;96.70;;;;;;5007928;28;20112;-78
2023/10/06 01:09:57;;;;;;;16.33;14.68;;;20.60;96.70;;;;;;5014890;28;20054;-79
2023/10/06 01:12:26;;;;;;;15.90;14.20;;;20.50;96.70;;;;;;5001434;28;20108;-80
2023/10/06 01:15:05;;;;;;;16.75;15.02;;;20.50;96.70;;;;;;5025956;28;20041;-78
2023/10/06 01:17:33;;;;;;;17.50;15.57;;;20.50;96.70;;;;;;5014580;28;20051;-79
2023/10/06 01:20:02;;;;;;;18.70;16.90;;;20.50;96.70;;;;;;5007828;28;20038;-79
2023/10/06 01:22:41;;;;;;;17.42;15.68;;;20.50;96.70;;;;;;5009723;28;20045;-79
2023/10/06 01:25:14;;;;;;;18.45;16.65;;;20.50;96.70;;;;;;5012658;28;20081;-78
2023/10/06 01:27:44;;;;;;;19.50;16.15;;;20.50;96.70;;;;;;4991290;28;20049;-79
2023/10/06 01:32:49;;;;;;;17.05;15.27;;;20.50;96.70;;;;;;5006947;28;20054;-79
2023/10/06 01:35:23;;;;;;;17.33;15.63;;;20.60;96.70;;;;;;5007156;28;20147;-79
2023/10/06 01:37:59;;;;;;;19.15;16.20;;;20.60;96.70;;;;;;5016257;28;20042;-80
2023/10/06 01:42:55;;;;;;;17.88;16.15;;;20.50;96.70;;;;;;5016101;28;20052;-79
2023/10/06 01:45:23;;;;;;;19.13;16.73;;;20.50;96.70;;;;;;5004967;28;20496;-79
2023/10/06 01:47:56;;;;;;;19.20;16.30;;;20.60;96.70;;;;;;5000054;28;20128;-79
2023/10/06 01:50:27;;;;;;;18.20;16.30;;;20.60;96.70;;;;;;4993553;28;21068;-79
2023/10/06 01:52:56;;;;;;;19.02;16.75;;;20.60;96.70;;;;;;4989027;28;20053;-78
2023/10/06 01:55:24;;;;;;;25.55;21.55;;;20.60;96.70;;;;;;5009604;28;20046;-79
2023/10/06 01:57:54;;;;;;;27.73;21.48;;;20.60;96.70;;;;;;5012444;28;20340;-79
2023/10/06 02:00:26;;;;;;;24.23;20.10;;;20.60;96.70;;;;;;5001361;28;20807;-78
2023/10/06 02:02:54;;;;;;;20.45;18.15;;;20.60;96.70;;;;;;5003086;28;20507;-79
2023/10/06 02:05:22;;;;;;;22.65;19.45;;;20.60;96.70;;;;;;5005375;28;20442;-80
2023/10/06 02:07:51;;;;;;;21.10;18.75;;;20.60;96.70;;;;;;5006745;28;20045;-79
2023/10/06 02:10:20;;;;;;;23.73;18.77;;;20.60;96.70;;;;;;5008647;28;20045;-79
2023/10/06 02:12:48;;;;;;;23.17;19.25;;;20.60;96.70;;;;;;5015734;28;20041;-78
2023/10/06 02:15:16;;;;;;;22.13;19.00;;;20.60;96.70;;;;;;4993306;28;20145;-79
2023/10/06 02:17:44;;;;;;;24.27;20.67;;;20.70;96.70;;;;;;5023396;28;20068;-78
2023/10/06 02:20:28;;;;;;;24.95;20.27;;;20.70;96.70;;;;;;5006336;28;20088;-78
2023/10/06 02:22:58;;;;;;;29.02;22.65;;;20.70;96.70;;;;;;5008611;28;20061;-79
2023/10/06 02:25:31;;;;;;;24.75;20.25;;;20.70;96.70;;;;;;5011809;28;20046;-78
2023/10/06 02:28:05;;;;;;;26.15;20.75;;;20.90;96.70;;;;;;5013380;28;20796;-79
2023/10/06 02:30:40;;;;;;;25.85;19.60;;;20.80;96.70;;;;;;5008084;28;20858;-79
2023/10/06 02:33:11;;;;;;;27.50;21.23;;;20.80;96.70;;;;;;5017841;28;20415;-79
2023/10/06 02:35:46;;;;;;;27.90;20.58;;;20.90;96.70;;;;;;5019382;28;20042;-80
2023/10/06 02:38:15;;;;;;;32.60;23.58;;;20.90;96.70;;;;;;5014365;28;20069;-79
2023/10/06 02:40:45;;;;;;;28.55;22.27;;;20.90;96.70;;;;;;5006298;28;20100;-79
2023/10/06 02:43:16;;;;;;;32.17;22.15;;;20.70;96.70;;;;;;5012882;28;20050;-78
2023/10/06 02:45:44;;;;;;;28.52;22.13;;;20.80;96.70;;;;;;5012421;28;20042;-79
2023/10/06 02:48:17;;;;;;;33.22;22.42;;;20.90;96.70;;;;;;5008522;28;20574;-78
2023/10/06 02:50:49;;;;;;;29.90;22.65;;;21.00;96.70;;;;;;5015032;28;20047;-79
2023/10/06 02:53:21;;;;;;;33.25;23.38;;;21.00;96.70;;;;;;5006938;28;20045;-81
2023/10/06 02:55:55;;;;;;;29.60;22.88;;;21.10;96.70;;;;;;5008294;28;20237;-78
2023/10/06 02:58:27;;;;;;;32.45;23.45;;;21.00;96.70;;;;;;5012342;28;20075;-78
2023/10/06 03:00:55;;;;;;;35.72;26.40;;;21.10;96.70;;;;;;5021447;28;20061;-77
2023/10/06 03:03:27;;;;;;;36.63;26.40;;;21.00;96.70;;;;;;5016778;28;20529;-79
2023/10/06 03:05:58;;;;;;;33.40;24.77;;;21.00;96.70;;;;;;5015429;28;20053;-78
2023/10/06 03:08:30;;;;;;;32.13;24.52;;;21.10;96.70;;;;;;5019601;28;20045;-79
2023/10/06 03:11:00;;;;;;;36.90;24.92;;;21.10;96.70;;;;;;4988302;28;20080;-79
2023/10/06 03:13:36;;;;;;;38.38;25.80;;;21.10;96.70;;;;;;5004825;28;20416;-79
2023/10/06 03:16:10;;;;;;;40.90;25.60;;;21.10;96.70;;;;;;5006372;28;20067;-79
2023/10/06 03:18:39;;;;;;;36.83;27.05;;;21.00;96.70;;;;;;5004879;28;20054;-79
2023/10/06 03:23:43;;;;;;;36.72;26.95;;;21.00;96.70;;;;;;5012742;28;20045;-78
2023/10/06 03:26:28;;;;;;;37.63;26.73;;;21.00;96.70;;;;;;5008766;28;20053;-77
2023/10/06 03:29:11;;;;;;;41.92;27.00;;;21.10;96.70;;;;;;5019161;28;20049;-79
2023/10/06 03:31:45;;;;;;;44.40;29.42;;;21.10;96.70;;;;;;5004706;28;20077;-78
2023/10/06 03:34:17;;;;;;;36.55;26.35;;;21.10;96.70;;;;;;4995915;28;20124;-78
2023/10/06 03:36:46;;;;;;;44.45;29.42;;;21.10;96.70;;;;;;5004414;28;20046;-79
2023/10/06 03:39:22;;;;;;;35.38;25.58;;;21.00;96.70;;;;;;4995515;28;20566;-78
2023/10/06 03:41:55;;;;;;;39.05;28.55;;;21.00;96.70;;;;;;5021125;28;20053;-78
2023/10/06 03:44:26;;;;;;;42.30;28.08;;;21.00;96.70;;;;;;5011381;28;20045;-78
2023/10/06 03:47:00;;;;;;;38.33;28.40;;;20.90;96.70;;;;;;4996695;28;20139;-79
2023/10/06 03:49:33;;;;;;;39.22;29.00;;;20.90;96.70;;;;;;5004130;28;20458;-79
2023/10/06 03:52:09;;;;;;;43.47;28.35;;;20.80;96.70;;;;;;5003925;28;20064;-79
2023/10/06 03:54:37;;;;;;;41.75;28.05;;;20.80;96.70;;;;;;5004492;28;20065;-79
2023/10/06 03:57:07;;;;;;;42.53;29.08;;;20.60;96.70;;;;;;5003658;28;20045;-78
2023/10/06 03:59:35;;;;;;;47.20;29.83;;;20.70;96.70;;;;;;5014130;28;20037;-79
2023/10/06 04:02:03;;;;;;;42.63;29.30;;;20.60;96.70;;;;;;5015662;28;20069;-79
2023/10/06 04:04:31;;;;;;;46.42;29.08;;;20.70;96.70;;;;;;5002282;28;20054;-79
2023/10/06 04:06:59;;;;;;;45.47;29.20;;;20.80;96.70;;;;;;5015382;28;20037;-79
2023/10/06 04:09:27;;;;;;;46.33;29.67;;;20.90;96.70;;;;;;5022855;28;20132;-79
2023/10/06 04:12:01;;;;;;;41.55;28.02;;;21.00;96.70;;;;;;5008525;28;20041;-79
2023/10/06 04:14:33;;;;;;;48.95;30.55;;;21.00;96.70;;;;;;5006484;28;20053;-79
2023/10/06 04:17:05;;;;;;;45.50;29.38;;;21.00;96.70;;;;;;4987515;28;20064;-78
2023/10/06 04:19:34;;;;;;;50.65;30.20;;;20.90;96.70;;;;;;5014280;28;20069;-78
2023/10/06 04:22:03;;;;;;;44.08;28.10;;;20.80;96.70;;;;;;5023013;28;20053;-79
2023/10/06 04:24:31;;;;;;;51.85;30.35;;;20.90;96.70;;;;;;5020561;28;20666;-79
2023/10/06 04:26:59;;;;;;;45.38;29.00;;;21.00;96.70;;;;;;4995422;28;20037;-78
2023/10/06 04:29:30;;;;;;;51.22;31.60;;;21.00;96.70;;;;;;5011631;28;20073;-80
2023/10/06 04:32:00;;;;;;;48.33;30.17;;;20.80;96.70;;;;;;5005428;28;20054;-80
2023/10/06 04:34:35;;;;;;;59.33;32.70;;;20.90;96.70;;;;;;5013460;28;20144;-78
2023/10/06 04:37:07;;;;;;;52.90;31.98;;;20.90;96.70;;;;;;5012717;28;20099;-80
2023/10/06 04:39:38;;;;;;;60.63;31.90;;;20.90;96.70;;;;;;5012887;28;20046;-80
2023/10/06 04:42:06;;;;;;;55.17;32.90;;;20.90;96.70;;;;;;4995370;28;20052;-81
2023/10/06 04:44:34;;;;;;;61.38;33.08;;;20.90;96.70;;;;;;5008681;28;20049;-79
2023/10/06 04:47:08;;;;;;;53.17;32.10;;;20.90;96.70;;;;;;5010054;28;20066;-78
2023/10/06 04:49:36;;;;;;;61.08;33.40;;;21.00;96.70;;;;;;5005922;28;20049;-78
2023/10/06 04:52:04;;;;;;;55.28;32.92;;;20.90;96.70;;;;;;4996283;28;20042;-79
2023/10/06 04:54:32;;;;;;;53.47;29.75;;;20.90;96.70;;;;;;4995020;28;20459;-78
2023/10/06 04:57:00;;;;;;;54.25;33.58;;;20.90;96.70;;;;;;5004147;28;20034;-78
2023/10/06 04:59:28;;;;;;;54.50;32.38;;;20.80;96.70;;;;;;5004016;28;20078;-78
2023/10/06 05:01:56;;;;;;;57.22;32.60;;;20.80;96.70;;;;;;5011747;28;20136;-78
2023/10/06 05:04:26;;;;;;;47.72;30.55;;;20.90;96.70;;;;;;5006073;28;20050;-80
2023/10/06 05:06:54;;;;;;;52.25;32.08;;;21.00;96.70;;;;;;5004433;28;20490;-80
2023/10/06 05:09:22;;;;;;;54.75;33.10;;;21.00;96.70;;;;;;5011638;28;20037;-78
2023/10/06 05:11:50;;;;;;;53.20;32.92;;;21.00;96.70;;;;;;5005343;28;20064;-79
2023/10/06 05:14:17;;;;;;;48.20;29.75;;;21.00;96.70;;;;;;5012497;28;20057;-78
2023/10/06 05:16:45;;;;;;;47.00;29.80;;;21.10;96.70;;;;;;5011749;28;20519;-79
2023/10/06 05:19:14;;;;;;;49.90;31.55;;;21.10;96.70;;;;;;5015382;28;20453;-78
2023/10/06 05:21:43;;;;;;;48.08;32.15;;;21.10;96.70;;;;;;5013949;28;20053;-78
2023/10/06 05:24:11;;;;;;;56.90;33.20;;;21.00;96.70;;;;;;5016658;28;20038;-80
2023/10/06 05:26:39;;;;;;;56.60;31.00;;;21.00;96.70;;;;;;5016425;28;20056;-79
2023/10/06 05:29:09;;;;;;;52.88;29.17;;;21.00;96.70;;;;;;5009136;28;20643;-79
2023/10/06 05:31:37;;;;;;;59.08;28.95;;;20.90;96.70;;;;;;5005261;28;20077;-79
2023/10/06 05:34:07;;;;;;;55.47;31.10;;;20.90;96.70;;;;;;5012194;28;20057;-78
2023/10/06 05:36:35;;;;;;;62.20;32.42;;;20.90;96.70;;;;;;5022080;28;20054;-79
2023/10/06 05:39:05;;;;;;;59.35;31.17;;;20.90;96.70;;;;;;5021810;28;20125;-79
2023/10/06 05:41:33;;;;;;;62.28;31.98;;;20.90;96.70;;;;;;5012024;28;20052;-78
2023/10/06 05:44:02;;;;;;;66.97;32.38;;;20.90;96.70;;;;;;4993233;28;20046;-80
2023/10/06 05:46:31;;;;;;;68.63;33.45;;;20.90;96.70;;;;;;5007519;28;20112;-80
2023/10/06 05:49:03;;;;;;;63.30;33.13;;;20.80;96.70;;;;;;4986983;28;20044;-83
2023/10/06 05:51:33;;;;;;;62.85;32.78;;;20.80;96.70;;;;;;5015666;28;20049;-80
2023/10/06 05:54:04;;;;;;;61.75;32.60;;;20.80;96.70;;;;;;5007336;28;20156;-81
2023/10/06 05:56:37;;;;;;;64.85;34.17;;;20.80;96.70;;;;;;5007305;28;20104;-81
2023/10/06 05:59:07;;;;;;;61.08;33.13;;;20.80;96.70;;;;;;5011668;28;20049;-81
2023/10/06 06:01:35;;;;;;;62.03;34.75;;;20.80;96.70;;;;;;5011452;28;20523;-80
2023/10/06 06:04:09;;;;;;;61.97;33.67;;;20.80;96.70;;;;;;4998259;28;20053;-82
2023/10/06 06:06:37;;;;;;;60.65;32.50;;;20.70;96.70;;;;;;5013422;28;20625;-82
2023/10/06 06:09:14;;;;;;;57.13;31.80;;;20.70;96.70;;;;;;5019338;28;20053;-85
2023/10/06 06:11:44;;;;;;;55.33;29.73;;;20.70;96.70;;;;;;4988670;28;20046;-86
2023/10/06 06:14:11;;;;;;;59.85;31.38;;;20.70;96.70;;;;;;5007797;28;20708;-86
2023/10/06 06:16:44;;;;;;;51.58;30.42;;;20.70;96.70;;;;;;5023706;28;20053;-84
2023/10/06 06:19:13;;;;;;;56.95;32.40;;;20.70;96.70;;;;;;4995665;28;20050;-82
2023/10/06 06:21:41;;;;;;;55.00;29.38;;;20.70;96.70;;;;;;5010189;28;20141;-82
2023/10/06 06:24:09;;;;;;;49.58;28.88;;;20.70;96.70;;;;;;5000657;28;20050;-82
2023/10/06 06:26:37;;;;;;;50.67;28.98;;;20.70;96.70;;;;;;5007870;28;20063;-81
2023/10/06 06:29:08;;;;;;;48.08;29.63;;;20.80;96.70;;;;;;5003118;28;20120;-85
2023/10/06 06:31:37;;;;;;;55.22;32.38;;;20.80;96.70;;;;;;5021696;28;20053;-82
2023/10/06 06:34:05;;;;;;;59.40;34.15;;;20.70;96.70;;;;;;5009722;28;20046;-81
2023/10/06 06:36:33;;;;;;;56.60;34.15;;;20.70;96.70;;;;;;4990977;28;20135;-81
2023/10/06 06:39:03;;;;;;;54.30;33.35;;;20.70;96.70;;;;;;5009118;28;20104;-81
2023/10/06 06:41:31;;;;;;;52.70;32.03;;;20.60;96.70;;;;;;4995747;28;20054;-81
2023/10/06 06:43:59;;;;;;;43.65;29.45;;;20.60;96.70;;;;;;5006770;28;20045;-81
2023/10/06 06:46:31;;;;;;;47.05;30.10;;;20.70;96.70;;;;;;5024935;28;20038;-82
2023/10/06 06:48:59;;;;;;;52.20;31.33;;;20.70;96.70;;;;;;4997685;28;20108;-82
2023/10/06 06:51:28;;;;;;;49.38;30.67;;;20.70;96.70;;;;;;5018036;28;20042;-85
2023/10/06 06:53:56;;;;;;;50.10;29.98;;;20.70;96.70;;;;;;5009760;28;20042;-85
2023/10/06 06:56:24;;;;;;;46.20;29.88;;;20.80;96.70;;;;;;5006893;28;20092;-83
2023/10/06 06:58:52;;;;;;;49.63;29.85;;;20.80;96.70;;;;;;4983732;28;20530;-81
2023/10/06 07:01:20;;;;;;;48.90;29.88;;;20.90;96.70;;;;;;4998780;28;20117;-81
2023/10/06 07:03:50;;;;;;;51.58;31.63;;;20.90;96.70;;;;;;5010721;28;20072;-81
2023/10/06 07:06:20;;;;;;;50.35;30.83;;;20.90;96.70;;;;;;5005394;28;20504;-81
2023/10/06 07:08:48;;;;;;;56.13;31.73;;;21.00;96.70;;;;;;5017251;28;20088;-81
2023/10/06 07:11:16;;;;;;;49.25;31.55;;;21.00;96.70;;;;;;5022361;28;20049;-81
2023/10/06 07:13:45;;;;;;;52.90;31.92;;;21.10;96.70;;;;;;5009729;28;20042;-81
2023/10/06 07:16:14;;;;;;;50.13;33.22;;;21.20;96.70;;;;;;5016710;28;20499;-82
2023/10/06 07:18:43;;;;;;;45.78;32.30;;;21.20;96.70;;;;;;5022037;28;20093;-82
2023/10/06 07:21:13;;;;;;;52.28;32.28;;;21.20;96.70;;;;;;5013165;28;20069;-82
2023/10/06 07:23:42;;;;;;;52.83;32.05;;;21.30;96.70;;;;;;5016155;28;20856;-83
2023/10/06 07:26:10;;;;;;;42.63;29.38;;;21.30;96.70;;;;;;5007373;28;20096;-82
2023/10/06 07:28:42;;;;;;;46.90;30.73;;;21.30;96.70;;;;;;4993058;28;20048;-82
2023/10/06 07:31:16;;;;;;;44.58;29.17;;;21.40;96.70;;;;;;5016246;28;20049;-82
2023/10/06 07:33:47;;;;;;;44.88;29.75;;;21.60;96.70;;;;;;5015936;28;20042;-82
2023/10/06 07:36:20;;;;;;;42.72;30.02;;;21.60;96.70;;;;;;5013508;28;20050;-82
2023/10/06 07:38:48;;;;;;;43.00;29.60;;;21.60;96.70;;;;;;5016154;28;20056;-82
2023/10/06 07:41:20;;;;;;;43.95;28.60;;;21.70;96.70;;;;;;5007406;28;20049;-83
2023/10/06 07:43:49;;;;;;;43.90;29.38;;;21.70;96.70;;;;;;5006528;28;20128;-82
2023/10/06 07:46:17;;;;;;;43.60;29.13;;;21.80;96.70;;;;;;5013448;28;20040;-82
2023/10/06 07:48:46;;;;;;;48.95;29.52;;;21.90;96.70;;;;;;5009444;28;20108;-82
2023/10/06 07:51:16;;;;;;;43.05;30.83;;;21.80;96.70;;;;;;4991247;28;20047;-82
2023/10/06 07:53:45;;;;;;;43.13;29.55;;;21.90;96.70;;;;;;5013992;28;20471;-82
2023/10/06 07:56:14;;;;;;;43.85;30.65;;;21.90;96.70;;;;;;5006643;28;20050;-82
2023/10/06 07:58:43;;;;;;;41.10;30.75;;;22.00;96.70;;;;;;5009682;28;20608;-81
2023/10/06 08:01:12;;;;;;;45.72;30.17;;;22.10;96.70;;;;;;5007174;28;20054;-81
2023/10/06 08:03:42;;;;;;;37.42;28.25;;;22.20;96.70;;;;;;5000085;28;20054;-81
2023/10/06 08:06:11;;;;;;;39.67;28.30;;;22.30;96.70;;;;;;4983271;28;20116;-81
2023/10/06 08:08:41;;;;;;;38.22;28.30;;;22.40;96.70;;;;;;5015212;28;20045;-82
2023/10/06 08:11:09;;;;;;;32.63;24.00;;;22.50;96.70;;;;;;4998492;28;20140;-83
2023/10/06 08:13:38;;;;;;;35.40;25.45;;;22.50;96.70;;;;;;5006445;28;20065;-82
2023/10/06 08:16:07;;;;;;;32.92;25.60;;;22.60;96.70;;;;;;5006260;28;20046;-81
2023/10/06 08:18:35;;;;;;;30.35;23.55;;;22.60;96.70;;;;;;5007725;28;20042;-82
2023/10/06 08:21:04;;;;;;;30.70;23.67;;;22.60;96.70;;;;;;5012795;28;20050;-83
2023/10/06 08:23:32;;;;;;;31.13;23.83;;;22.70;96.70;;;;;;4998022;28;20395;-82
2023/10/06 08:26:07;;;;;;;29.92;23.08;;;22.80;96.70;;;;;;5008363;28;20232;-82
2023/10/06 08:28:36;;;;;;;30.98;23.92;;;22.90;96.70;;;;;;5013248;28;20056;-79
2023/10/06 08:31:13;;;;;;;33.08;25.00;;;23.00;96.70;;;;;;5009188;28;20047;-81
2023/10/06 08:33:43;;;;;;;26.85;23.48;;;23.00;96.70;;;;;;5011481;28;20049;-81
2023/10/06 08:36:12;;;;;;;30.02;23.85;;;23.00;96.70;;;;;;5008656;28;20046;-82
2023/10/06 08:38:40;;;;;;;33.97;24.73;;;23.10;96.70;;;;;;4990498;28;20108;-83
2023/10/06 08:41:10;;;;;;;31.25;25.27;;;23.00;96.70;;;;;;5016573;28;20046;-84
2023/10/06 08:43:39;;;;;;;33.95;26.50;;;23.10;96.70;;;;;;5024877;28;20762;-84
2023/10/06 08:46:08;;;;;;;33.72;24.80;;;23.10;96.70;;;;;;5024820;28;20045;-83
2023/10/06 08:48:38;;;;;;;31.17;26.40;;;23.10;96.70;;;;;;5011837;28;20045;-82
2023/10/06 08:51:10;;;;;;;32.25;23.58;;;23.10;96.70;;;;;;5007606;28;20120;-83
2023/10/06 08:53:42;;;;;;;33.00;25.83;;;23.10;96.70;;;;;;5013892;28;20511;-83
2023/10/06 08:56:14;;;;;;;27.70;23.73;;;23.20;96.70;;;;;;5006721;28;20061;-83
2023/10/06 08:58:44;;;;;;;27.77;23.27;;;23.20;96.70;;;;;;5007852;28;20506;-83
2023/10/06 09:01:13;;;;;;;32.05;24.20;;;23.30;96.70;;;;;;5002066;28;20058;-83
2023/10/06 09:03:41;;;;;;;27.77;24.10;;;23.40;96.70;;;;;;5013463;28;20050;-83
2023/10/06 09:06:11;;;;;;;26.05;22.58;;;23.50;96.70;;;;;;4997858;28;20042;-84
2023/10/06 09:08:43;;;;;;;23.35;20.85;;;23.50;96.70;;;;;;4998218;28;20057;-83
2023/10/06 09:11:14;;;;;;;24.60;21.67;;;23.50;96.70;;;;;;5008081;28;20499;-83
2023/10/06 09:13:43;;;;;;;28.02;23.23;;;23.60;96.70;;;;;;5007122;28;20050;-84
2023/10/06 09:16:11;;;;;;;27.92;22.95;;;23.60;96.70;;;;;;5011096;28;20050;-84
2023/10/06 09:18:40;;;;;;;28.13;22.90;;;23.70;96.70;;;;;;5003798;28;20048;-83
2023/10/06 09:21:13;;;;;;;27.80;22.95;;;23.80;96.70;;;;;;5001185;28;20100;-83
2023/10/06 09:23:42;;;;;;;29.85;22.33;;;23.80;96.70;;;;;;5011671;28;20053;-83
2023/10/06 09:26:12;;;;;;;34.28;24.70;;;23.90;96.70;;;;;;5013389;28;20392;-83
2023/10/06 09:29:04;;;;;;;29.08;22.25;;;24.00;96.70;;;;;;5020173;28;20079;-82
2023/10/06 09:31:37;;;;;;;26.00;21.42;;;24.10;96.70;;;;;;4991648;28;20055;-83
2023/10/06 09:34:08;;;;;;;27.80;22.83;;;24.10;96.70;;;;;;5006321;28;20513;-83
2023/10/06 09:36:42;;;;;;;27.33;22.52;;;24.10;96.70;;;;;;5014421;28;20053;-83
2023/10/06 09:39:25;;;;;;;25.92;21.55;;;24.20;96.70;;;;;;5018407;28;20060;-83
2023/10/06 09:41:54;;;;;;;24.45;20.48;;;24.30;96.70;;;;;;5014591;28;20400;-84
2023/10/06 09:44:26;;;;;;;25.40;21.42;;;24.40;96.70;;;;;;5011932;28;20092;-83
2023/10/06 09:46:59;;;;;;;24.63;20.75;;;24.50;96.70;;;;;;5011077;28;20496;-82
2023/10/06 09:49:28;;;;;;;22.92;18.55;;;24.50;96.70;;;;;;5008261;28;20081;-83
2023/10/06 09:52:03;;;;;;;25.23;20.40;;;24.60;96.70;;;;;;5010727;28;20042;-83
2023/10/06 09:54:32;;;;;;;20.73;18.52;;;24.60;96.70;;;;;;5001209;28;20088;-83
2023/10/06 09:57:02;;;;;;;21.65;18.08;;;24.70;96.70;;;;;;5013954;28;20385;-83
2023/10/06 09:59:32;;;;;;;21.58;17.90;;;24.70;96.70;;;;;;5009624;28;20117;-83
2023/10/06 10:02:03;;;;;;;23.20;18.33;;;24.80;96.70;;;;;;5008763;28;20049;-84
2023/10/06 10:04:34;;;;;;;21.92;18.35;;;24.90;96.70;;;;;;4987128;28;20046;-81
2023/10/06 10:07:03;;;;;;;18.95;16.05;;;24.90;96.70;;;;;;5006439;28;20148;-83
2023/10/06 10:09:34;;;;;;;20.58;17.05;;;24.90;96.70;;;;;;5011409;28;20480;-82
2023/10/06 10:12:27;;;;;;;17.50;15.45;;;25.00;96.70;;;;;;5011772;28;20046;-82
2023/10/06 10:15:11;;;;;;;18.20;15.88;;;25.10;96.70;;;;;;5011122;28;20176;-83
2023/10/06 10:17:50;;;;;;;21.10;17.08;;;25.40;96.70;;;;;;5001546;28;20046;-83
2023/10/06 10:20:24;;;;;;;20.55;15.38;;;25.40;96.70;;;;;;5013926;28;20115;-82
2023/10/06 10:22:56;;;;;;;20.77;16.23;;;25.40;96.70;;;;;;5018758;28;20189;-82
2023/10/06 10:25:25;;;;;;;18.27;16.05;;;25.40;96.70;;;;;;5014636;28;20133;-82
2023/10/06 10:28:14;;;;;;;20.88;15.32;;;25.40;96.70;;;;;;5023325;28;20103;-82
2023/10/06 10:30:56;;;;;;;17.90;15.65;;;25.50;96.70;;;;;;5010996;28;20053;-82
2023/10/06 10:33:29;;;;;;;18.75;15.77;;;25.60;96.70;;;;;;5000024;28;20065;-82
2023/10/06 10:36:20;;;;;;;18.00;15.27;;;25.60;96.70;;;;;;5007426;28;20512;-82
2023/10/06 10:39:09;;;;;;;19.00;15.48;;;25.70;96.70;;;;;;5009433;28;20044;-81
2023/10/06 10:41:39;;;;;;;20.17;14.77;;;25.80;96.70;;;;;;5001307;28;20120;-81
2023/10/06 10:44:11;;;;;;;22.15;15.38;;;25.80;96.70;;;;;;5008277;28;20053;-82
2023/10/06 10:46:56;;;;;;;16.95;14.10;;;26.00;96.70;;;;;;5015676;28;20133;-82
2023/10/06 10:49:29;;;;;;;16.58;13.85;;;26.20;96.70;;;;;;5008157;28;20250;-82
2023/10/06 10:52:00;;;;;;;18.38;14.52;;;26.30;96.70;;;;;;5009580;28;20068;-82
2023/10/06 10:54:33;;;;;;;15.48;13.65;;;26.30;96.70;;;;;;5008334;28;20052;-82
2023/10/06 10:57:06;;;;;;;14.73;12.65;;;26.40;96.70;;;;;;5016410;28;20069;-82
2023/10/06 11:02:40;;;;;;;14.32;12.57;;;26.60;96.70;;;;;;5006867;28;20052;-82
2023/10/06 11:05:09;;;;;;;15.27;13.07;;;26.70;96.70;;;;;;5008184;28;20043;-82
2023/10/06 11:07:39;;;;;;;20.80;14.43;;;26.80;96.70;;;;;;5015695;28;20046;-83
2023/10/06 11:10:13;;;;;;;17.05;13.57;;;27.00;96.70;;;;;;5012335;28;20046;-82
2023/10/06 11:12:41;;;;;;;17.75;14.23;;;27.10;96.70;;;;;;5006536;28;20515;-83
2023/10/06 11:15:15;;;;;;;18.13;14.55;;;27.10;96.70;;;;;;4999861;28;20112;-82
2023/10/06 11:17:45;;;;;;;17.35;14.20;;;27.10;96.70;;;;;;5009265;28;20045;-84
2023/10/06 11:20:15;;;;;;;15.85;13.18;;;27.10;96.70;;;;;;5008688;28;20121;-83
2023/10/06 11:22:54;;;;;;;18.23;13.23;;;27.10;96.70;;;;;;4992134;28;20060;-83
2023/10/06 11:25:29;;;;;;;16.13;13.13;;;27.20;96.70;;;;;;5009738;28;20076;-84
2023/10/06 11:28:03;;;;;;;14.48;12.98;;;27.30;96.70;;;;;;5023382;28;20084;-83
2023/10/06 11:30:33;;;;;;;16.33;12.57;;;27.50;96.70;;;;;;5020228;28;20081;-84
2023/10/06 11:33:06;;;;;;;14.02;12.55;;;27.70;96.70;;;;;;5000585;28;20061;-83
2023/10/06 11:35:34;;;;;;;15.30;12.80;;;27.80;96.70;;;;;;5019388;28;20144;-84
2023/10/06 11:38:05;;;;;;;14.75;12.32;;;27.90;96.70;;;;;;5015876;28;20373;-82
2023/10/06 11:40:35;;;;;;;17.83;14.20;;;28.00;96.70;;;;;;5007121;28;20053;-84
2023/10/06 11:43:12;;;;;;;16.27;13.07;;;28.00;96.70;;;;;;4996743;28;20128;-84
2023/10/06 11:45:41;;;;;;;16.17;12.98;;;27.90;96.70;;;;;;5007185;28;20053;-83
2023/10/06 11:48:31;;;;;;;14.48;11.65;;;28.10;96.70;;;;;;5016121;28;20050;-85
2023/10/06 11:51:00;;;;;;;15.45;12.43;;;28.10;96.70;;;;;;4998084;28;20050;-84
2023/10/06 11:53:29;;;;;;;13.05;11.63;;;28.10;96.70;;;;;;5021081;28;20072;-84
2023/10/06 11:56:08;;;;;;;15.40;12.50;;;28.10;96.70;;;;;;5009088;28;20844;-85
2023/10/06 11:58:37;;;;;;;13.50;11.30;;;28.30;96.70;;;;;;5024365;28;20104;-83
2023/10/06 12:01:06;;;;;;;14.85;12.02;;;28.50;96.70;;;;;;5007742;28;20091;-88
2023/10/06 12:03:42;;;;;;;13.30;10.77;;;28.50;96.70;;;;;;5000172;28;20124;-81
2023/10/06 12:06:13;;;;;;;14.05;11.50;;;28.60;96.70;;;;;;5003445;28;20049;-82
2023/10/06 12:08:42;;;;;;;15.02;11.65;;;28.80;96.70;;;;;;5006155;28;20046;-82
2023/10/06 12:11:12;;;;;;;14.57;11.27;;;28.70;96.70;;;;;;5000084;28;20137;-82
2023/10/06 12:13:40;;;;;;;13.48;11.20;;;28.70;96.70;;;;;;5002109;28;20053;-83
2023/10/06 12:16:12;;;;;;;12.60;10.73;;;28.90;96.70;;;;;;5020153;28;20041;-82
2023/10/06 12:18:46;;;;;;;14.05;11.02;;;29.10;96.70;;;;;;5005300;28;20061;-85
2023/10/06 12:21:15;;;;;;;13.02;10.73;;;29.20;96.70;;;;;;5000030;28;20041;-83
2023/10/06 12:23:43;;;;;;;13.90;12.18;;;29.30;96.70;;;;;;5000291;28;20037;-82
2023/10/06 12:26:11;;;;;;;11.35;9.80;;;29.20;96.70;;;;;;5004688;28;20046;-81
2023/10/06 12:28:42;;;;;;;11.15;9.90;;;29.20;96.70;;;;;;5012662;28;20042;-82
2023/10/06 12:31:11;;;;;;;13.57;9.80;;;29.30;96.70;;;;;;5011653;28;20108;-81
2023/10/06 12:33:40;;;;;;;12.73;10.02;;;29.40;96.70;;;;;;4998799;28;20103;-82
2023/10/06 12:36:09;;;;;;;10.98;9.88;;;29.40;96.70;;;;;;5012692;28;20315;-81
2023/10/06 12:38:39;;;;;;;12.02;10.18;;;29.40;96.70;;;;;;5007302;28;20064;-82
2023/10/06 12:41:08;;;;;;;11.82;9.65;;;29.40;96.70;;;;;;5016566;28;20049;-81
2023/10/06 12:43:36;;;;;;;10.43;9.05;;;29.50;96.70;;;;;;5021227;28;20049;-81
2023/10/06 12:46:08;;;;;;;10.18;9.00;;;29.50;96.70;;;;;;4986243;28;20714;-82
2023/10/06 12:48:38;;;;;;;10.82;9.23;;;29.60;96.70;;;;;;5004732;28;20054;-82
2023/10/06 12:51:11;;;;;;;10.00;8.38;;;29.70;96.70;;;;;;5002983;28;20050;-82
2023/10/06 12:53:40;;;;;;;11.05;8.38;;;29.50;96.70;;;;;;5016164;28;20072;-82
2023/10/06 12:56:09;;;;;;;9.63;8.40;;;29.50;96.70;;;;;;5010419;28;20722;-83
2023/10/06 12:58:38;;;;;;;10.50;8.75;;;29.50;96.70;;;;;;5005315;28;20041;-83
2023/10/06 13:01:07;;;;;;;9.73;8.13;;;29.60;96.70;;;;;;5004817;28;20060;-82
2023/10/06 13:03:36;;;;;;;10.35;7.80;;;29.70;96.70;;;;;;5012049;28;20054;-82